Time;durP1;ratioP1;P1;durP2;ratioP2;P2;SDS_P1;SDS_P2;PMS_P1;PMS_P2;Temp;Humidity;BMP_temperature;BMP_pressure;BME280_temperature;BME280_humidity;BME280_pressure;Samples;Min_cycle;Max_cycle;Signal;HPM_P1;HPM_P2
2022/04/27 00:01:50;;;;;;;15.10;7.50;;;5.50;84.30;;;;;;5072194;28;20063;-44
2022/04/27 00:04:17;;;;;;;13.30;8.18;;;5.50;84.40;;;;;;5074038;28;20052;-45
2022/04/27 00:06:44;;;;;;;9.52;7.55;;;5.50;84.80;;;;;;5073480;28;20491;-43
2022/04/27 00:09:11;;;;;;;14.30;7.47;;;5.50;84.70;;;;;;5075322;28;20445;-42
2022/04/27 00:11:39;;;;;;;13.23;7.80;;;5.40;84.30;;;;;;5057238;28;20025;-46
2022/04/27 00:14:05;;;;;;;13.57;8.18;;;5.40;84.70;;;;;;5073298;28;20032;-43
2022/04/27 00:16:32;;;;;;;12.43;7.70;;;5.40;84.80;;;;;;5072887;28;20039;-48
2022/04/27 00:18:59;;;;;;;11.13;8.50;;;5.30;84.80;;;;;;5074739;28;20036;-43
2022/04/27 00:21:26;;;;;;;10.63;7.35;;;5.30;84.70;;;;;;5072972;28;20446;-44
2022/04/27 00:23:55;;;;;;;8.45;7.03;;;5.30;84.80;;;;;;5073403;28;20174;-43
2022/04/27 00:26:22;;;;;;;12.90;8.30;;;5.30;85.00;;;;;;5072857;28;20342;-44
2022/04/27 00:28:51;;;;;;;11.70;7.97;;;5.40;85.00;;;;;;5074439;28;20024;-44
2022/04/27 00:31:19;;;;;;;11.73;7.67;;;5.30;85.10;;;;;;5072657;28;20032;-42
2022/04/27 00:33:45;;;;;;;13.27;8.13;;;5.30;85.20;;;;;;5074142;28;20266;-43
2022/04/27 00:36:13;;;;;;;11.20;7.00;;;5.40;85.00;;;;;;5074327;28;20035;-46
2022/04/27 00:38:39;;;;;;;10.40;7.60;;;5.40;85.10;;;;;;5073206;28;20099;-43
2022/04/27 00:41:06;;;;;;;11.48;7.88;;;5.40;84.90;;;;;;5073676;28;20024;-43
2022/04/27 00:43:50;;;;;;;14.65;9.38;;;5.40;85.00;;;;;;5071933;28;20025;-43
2022/04/27 00:46:20;;;;;;;12.50;8.02;;;5.40;85.00;;;;;;5073488;28;20029;-43
2022/04/27 00:48:47;;;;;;;11.50;8.20;;;5.50;84.90;;;;;;5069558;28;20352;-44
2022/04/27 00:51:21;;;;;;;8.18;6.97;;;5.50;85.00;;;;;;5035552;28;20046;-43
2022/04/27 00:53:51;;;;;;;9.45;7.90;;;5.50;84.80;;;;;;5064086;28;20120;-43
2022/04/27 00:56:18;;;;;;;;;;;5.50;84.70;;;;;;5034482;28;20473;-45
2022/04/27 00:58:47;;;;;;;12.80;7.25;;;5.50;84.80;;;;;;5033251;28;19970;-42
2022/04/27 01:01:15;;;;;;;11.93;7.78;;;5.60;84.80;;;;;;5034023;28;20037;-44
2022/04/27 01:03:44;;;;;;;13.85;8.38;;;5.50;84.80;;;;;;5033117;28;20366;-44
2022/04/27 01:06:11;;;;;;;9.32;8.27;;;5.50;84.70;;;;;;5066266;28;20461;-44
2022/04/27 01:08:38;;;;;;;15.55;8.70;;;5.60;84.90;;;;;;5033636;28;20045;-44
2022/04/27 01:11:06;;;;;;;10.95;8.80;;;5.60;84.90;;;;;;5033866;28;20331;-42
2022/04/27 01:13:33;;;;;;;10.07;8.93;;;5.50;84.90;;;;;;5032288;28;20072;-46
2022/04/27 01:16:01;;;;;;;10.93;8.95;;;5.60;84.80;;;;;;5033013;28;20053;-43
2022/04/27 01:18:28;;;;;;;11.10;9.35;;;5.70;84.90;;;;;;5033529;28;20025;-45
2022/04/27 01:20:56;;;;;;;11.15;9.32;;;5.70;84.80;;;;;;5033066;28;20450;-44
2022/04/27 01:23:21;;;;;;;11.57;10.27;;;5.70;84.60;;;;;;5033690;28;20061;-44
2022/04/27 01:25:55;;;;;;;10.35;8.77;;;5.80;84.70;;;;;;5032869;28;20057;-45
2022/04/27 01:28:23;;;;;;;12.30;8.80;;;5.70;84.70;;;;;;5033514;28;20087;-44
2022/04/27 01:31:11;;;;;;;9.13;7.72;;;5.80;84.70;;;;;;5033039;28;20040;-43
2022/04/27 01:33:39;;;;;;;8.75;7.50;;;5.80;84.50;;;;;;5033597;28;20064;-43
2022/04/27 01:36:08;;;;;;;12.25;7.15;;;5.80;84.50;;;;;;5032899;28;20025;-42
2022/04/27 01:38:44;;;;;;;9.27;7.28;;;5.80;84.50;;;;;;5033500;28;20405;-43
2022/04/27 01:41:11;;;;;;;9.15;6.85;;;5.90;84.50;;;;;;5030669;28;20037;-43
2022/04/27 01:43:38;;;;;;;11.25;7.13;;;5.90;84.30;;;;;;5033355;28;20033;-44
2022/04/27 01:46:05;;;;;;;10.82;6.57;;;5.90;84.20;;;;;;5032615;28;20443;-43
2022/04/27 01:48:32;;;;;;;11.60;7.50;;;6.00;84.00;;;;;;5033339;28;20104;-46
2022/04/27 01:51:00;;;;;;;8.60;6.93;;;6.00;84.10;;;;;;5063681;28;20447;-43
2022/04/27 01:56:11;;;;;;;11.02;7.28;;;6.00;84.00;;;;;;5020142;28;20037;-43
2022/04/27 01:58:37;;;;;;;12.45;7.47;;;6.00;83.90;;;;;;5033266;28;20049;-44
2022/04/27 02:01:11;;;;;;;22.70;14.25;;;6.00;83.80;;;;;;5033094;28;20072;-44
2022/04/27 02:03:39;;;;;;;31.05;17.70;;;6.00;84.00;;;;;;5033464;28;20029;-43
2022/04/27 02:06:07;;;;;;;29.02;15.02;;;6.00;84.00;;;;;;5032376;28;20030;-44
2022/04/27 02:08:32;;;;;;;20.73;12.90;;;5.90;83.90;;;;;;5033180;28;20088;-42
2022/04/27 02:11:01;;;;;;;21.95;10.55;;;5.90;83.90;;;;;;5031389;28;20025;-43
2022/04/27 02:13:28;;;;;;;14.18;8.93;;;5.90;84.00;;;;;;5015527;28;20029;-42
2022/04/27 02:15:55;;;;;;;13.43;7.60;;;5.80;84.00;;;;;;5032398;28;20351;-46
2022/04/27 02:18:22;;;;;;;11.52;7.78;;;5.70;84.00;;;;;;5033132;28;20029;-44
2022/04/27 02:20:51;;;;;;;9.80;6.72;;;5.70;84.10;;;;;;5032621;28;20151;-45
2022/04/27 02:23:19;;;;;;;9.67;7.00;;;5.70;84.10;;;;;;5033044;28;20347;-42
2022/04/27 02:25:47;;;;;;;13.40;7.27;;;5.60;84.20;;;;;;5033646;28;20032;-45
2022/04/27 02:28:16;;;;;;;11.55;7.32;;;5.60;84.00;;;;;;5041921;28;20036;-45
2022/04/27 02:30:42;;;;;;;9.68;6.78;;;5.60;84.10;;;;;;5056661;28;20472;-46
2022/04/27 02:33:09;;;;;;;9.85;7.57;;;5.50;84.10;;;;;;5052801;28;20061;-43
2022/04/27 02:35:38;;;;;;;8.80;6.30;;;5.50;84.10;;;;;;5056691;28;20025;-44
2022/04/27 02:38:07;;;;;;;8.00;6.40;;;5.40;83.90;;;;;;5038688;28;20029;-46
2022/04/27 02:40:33;;;;;;;8.40;7.18;;;5.40;83.90;;;;;;5036656;28;20107;-43
2022/04/27 02:43:00;;;;;;;11.85;8.13;;;5.40;84.00;;;;;;5035320;28;20060;-44
2022/04/27 02:45:27;;;;;;;9.05;6.93;;;5.30;83.90;;;;;;5035369;28;20452;-44
2022/04/27 02:47:54;;;;;;;7.50;6.20;;;5.20;84.00;;;;;;5036013;28;20029;-42
2022/04/27 02:53:05;;;;;;;8.55;6.80;;;5.20;83.90;;;;;;5035622;28;20059;-43
2022/04/27 02:55:30;;;;;;;9.70;6.90;;;5.10;83.80;;;;;;5036294;28;20583;-44
2022/04/27 02:57:57;;;;;;;10.57;6.63;;;5.10;84.00;;;;;;5033794;28;20021;-44
2022/04/27 03:00:24;;;;;;;12.45;8.75;;;5.10;84.10;;;;;;5036417;28;20033;-43
2022/04/27 03:02:51;;;;;;;12.52;7.25;;;5.10;84.20;;;;;;5067136;28;20026;-45
2022/04/27 03:05:17;;;;;;;9.07;6.25;;;5.10;84.30;;;;;;5036209;28;20033;-43
2022/04/27 03:07:43;;;;;;;11.23;7.43;;;5.10;84.30;;;;;;5033280;28;20032;-43
2022/04/27 03:10:10;;;;;;;10.20;7.90;;;5.10;84.30;;;;;;5036068;28;20025;-43
2022/04/27 03:12:37;;;;;;;9.73;6.70;;;5.00;84.20;;;;;;5035649;28;20116;-44
2022/04/27 03:15:05;;;;;;;9.07;6.65;;;5.10;84.40;;;;;;5035696;28;20033;-43
2022/04/27 03:17:32;;;;;;;9.60;7.15;;;5.10;84.40;;;;;;5035243;28;20020;-43
2022/04/27 03:19:59;;;;;;;11.98;6.78;;;5.10;84.70;;;;;;5036175;28;20044;-42
2022/04/27 03:22:25;;;;;;;10.30;7.07;;;5.10;84.80;;;;;;5031187;28;20103;-45
2022/04/27 03:24:52;;;;;;;13.25;8.57;;;5.20;84.90;;;;;;5035128;28;20100;-43
2022/04/27 03:27:21;;;;;;;11.55;7.47;;;5.20;84.80;;;;;;5033037;28;20100;-42
2022/04/27 03:29:47;;;;;;;10.30;7.68;;;5.20;84.90;;;;;;5030305;28;20021;-45
2022/04/27 03:32:14;;;;;;;7.97;6.53;;;5.30;85.20;;;;;;5033012;28;20040;-44
2022/04/27 03:34:41;;;;;;;10.57;7.43;;;5.40;85.30;;;;;;5035298;28;20026;-43
2022/04/27 03:37:08;;;;;;;12.32;7.97;;;5.40;85.20;;;;;;5035519;28;20025;-47
2022/04/27 03:39:37;;;;;;;11.07;7.60;;;5.40;85.10;;;;;;5034647;28;20025;-43
2022/04/27 03:42:04;;;;;;;10.90;7.10;;;5.50;84.90;;;;;;5035658;28;20161;-43
2022/04/27 03:44:29;;;;;;;11.65;7.53;;;5.50;84.80;;;;;;5034053;28;20300;-46
2022/04/27 03:46:56;;;;;;;11.13;7.60;;;5.50;84.70;;;;;;5035380;28;20032;-45
2022/04/27 03:49:22;;;;;;;13.52;7.63;;;5.60;84.40;;;;;;5037179;28;20049;-42
2022/04/27 03:51:48;;;;;;;9.27;6.55;;;5.60;84.40;;;;;;5075237;28;20020;-46
2022/04/27 03:54:15;;;;;;;8.52;7.10;;;5.70;84.40;;;;;;5055707;28;20055;-44
2022/04/27 03:56:44;;;;;;;8.98;6.90;;;5.70;84.50;;;;;;5074895;28;20032;-45
2022/04/27 03:59:11;;;;;;;10.43;7.32;;;5.70;84.30;;;;;;5073579;28;20036;-43
2022/04/27 04:01:41;;;;;;;10.10;8.05;;;5.70;84.40;;;;;;5073865;28;20036;-43
2022/04/27 04:04:08;;;;;;;10.98;7.53;;;5.70;84.30;;;;;;5072162;28;20043;-44
2022/04/27 04:06:37;;;;;;;13.05;7.95;;;5.80;84.00;;;;;;5074889;28;20500;-45
2022/04/27 04:09:03;;;;;;;9.50;7.18;;;5.80;84.10;;;;;;5073860;28;20042;-43
2022/04/27 04:11:30;;;;;;;10.23;6.72;;;5.90;84.00;;;;;;5074837;28;20025;-45
2022/04/27 04:13:57;;;;;;;9.43;7.30;;;5.90;84.00;;;;;;5073085;28;20128;-43
2022/04/27 04:16:25;;;;;;;11.38;7.30;;;6.00;84.10;;;;;;5074728;28;20076;-42
2022/04/27 04:18:52;;;;;;;10.65;7.13;;;6.00;84.20;;;;;;5073427;28;20392;-44
2022/04/27 04:21:18;;;;;;;8.23;6.70;;;6.10;84.10;;;;;;5074661;28;20319;-44
2022/04/27 04:23:46;;;;;;;10.32;6.85;;;6.10;84.30;;;;;;5055096;28;20032;-43
2022/04/27 04:29:00;;;;;;;8.40;6.47;;;6.20;84.10;;;;;;5072392;28;20067;-43
2022/04/27 04:31:26;;;;;;;13.23;6.95;;;6.20;83.60;;;;;;5074179;28;20028;-43
2022/04/27 04:33:53;;;;;;;7.65;5.63;;;6.20;83.30;;;;;;5072006;28;20090;-45
2022/04/27 04:36:20;;;;;;;11.10;7.00;;;6.20;83.70;;;;;;5074068;28;20031;-42
2022/04/27 04:38:47;;;;;;;7.25;6.38;;;6.30;83.60;;;;;;5071240;28;20036;-43
2022/04/27 04:41:14;;;;;;;7.80;6.35;;;6.30;83.60;;;;;;5074070;28;20029;-42
2022/04/27 04:43:40;;;;;;;6.22;5.18;;;6.30;83.40;;;;;;5071085;28;20064;-44
2022/04/27 04:46:08;;;;;;;8.32;6.63;;;6.20;83.20;;;;;;5074034;28;20029;-48
2022/04/27 04:48:38;;;;;;;10.43;6.47;;;6.10;83.00;;;;;;5070403;28;20024;-47
2022/04/27 04:51:04;;;;;;;9.13;6.38;;;6.10;83.40;;;;;;5073811;28;20113;-46
2022/04/27 04:53:34;;;;;;;13.73;6.80;;;5.90;83.20;;;;;;5072434;28;20035;-42
2022/04/27 04:56:01;;;;;;;12.82;7.50;;;5.90;83.30;;;;;;5056276;28;20428;-44
2022/04/27 04:58:30;;;;;;;10.52;7.20;;;6.00;83.30;;;;;;5054416;28;20039;-45
2022/04/27 05:00:58;;;;;;;7.75;6.07;;;6.00;83.20;;;;;;5073965;28;20029;-46
2022/04/27 05:03:24;;;;;;;10.10;6.80;;;6.10;83.20;;;;;;5072322;28;20036;-43
2022/04/27 05:05:51;;;;;;;8.32;6.28;;;6.20;83.30;;;;;;5074148;28;20020;-45
2022/04/27 05:08:17;;;;;;;9.05;6.38;;;6.50;83.50;;;;;;5071853;28;20032;-47
2022/04/27 05:10:42;;;;;;;9.23;6.32;;;6.90;83.00;;;;;;5073640;28;20033;-43
2022/04/27 05:13:09;;;;;;;8.35;6.40;;;7.30;81.80;;;;;;5071889;28;20037;-43
2022/04/27 05:15:36;;;;;;;9.52;6.13;;;7.70;81.00;;;;;;5073513;28;20095;-48
2022/04/27 05:18:03;;;;;;;9.32;6.35;;;8.10;80.20;;;;;;5071937;28;20036;-45
2022/04/27 05:20:31;;;;;;;7.60;6.00;;;8.40;78.40;;;;;;5073662;28;20032;-46
2022/04/27 05:22:58;;;;;;;6.20;5.15;;;8.60;78.10;;;;;;5071715;28;20035;-44
2022/04/27 05:25:27;;;;;;;7.88;5.65;;;8.70;77.60;;;;;;5073416;28;20029;-49
2022/04/27 05:27:53;;;;;;;12.45;6.63;;;8.60;76.70;;;;;;5071890;28;20029;-45
2022/04/27 05:33:05;;;;;;;10.40;4.95;;;8.40;76.90;;;;;;5072071;28;20521;-46
2022/04/27 05:35:39;;;;;;;10.23;6.13;;;8.40;77.70;;;;;;5070794;28;20472;-46
2022/04/27 05:38:06;;;;;;;5.85;4.40;;;8.50;77.10;;;;;;5071637;28;20025;-44
2022/04/27 05:40:31;;;;;;;7.40;5.15;;;8.50;77.00;;;;;;5073338;28;20029;-45
2022/04/27 05:42:59;;;;;;;7.00;5.28;;;8.50;77.40;;;;;;5069283;28;20037;-50
2022/04/27 05:45:25;;;;;;;7.40;5.50;;;8.50;77.10;;;;;;5071489;28;20032;-44
2022/04/27 05:47:55;;;;;;;8.93;5.30;;;8.50;77.20;;;;;;5071660;28;20028;-44
2022/04/27 05:50:21;;;;;;;7.55;4.85;;;8.60;77.40;;;;;;5073253;28;20104;-46
2022/04/27 05:52:49;;;;;;;6.40;3.53;;;8.40;75.40;;;;;;5053914;28;20481;-45
2022/04/27 05:55:16;;;;;;;4.85;3.17;;;8.40;74.60;;;;;;5073261;28;20407;-44
2022/04/27 05:57:43;;;;;;;8.45;4.55;;;8.50;74.80;;;;;;5071706;28;20352;-45
2022/04/27 06:00:10;;;;;;;8.10;3.70;;;8.70;74.60;;;;;;5073185;28;20031;-44
2022/04/27 06:02:38;;;;;;;5.57;3.55;;;8.70;72.50;;;;;;5075380;28;20078;-46
2022/04/27 06:05:06;;;;;;;5.10;3.45;;;8.90;73.20;;;;;;5077213;28;20128;-46
2022/04/27 06:07:36;;;;;;;4.97;3.65;;;8.90;73.30;;;;;;5075702;28;20053;-46
2022/04/27 06:10:04;;;;;;;4.68;3.10;;;9.00;72.30;;;;;;5076026;28;20111;-45
2022/04/27 06:12:35;;;;;;;9.23;3.80;;;9.10;71.80;;;;;;5077250;28;20428;-45
2022/04/27 06:15:11;;;;;;;5.53;3.70;;;9.20;70.20;;;;;;5075616;28;20029;-45
2022/04/27 06:17:38;;;;;;;6.60;3.33;;;9.30;70.40;;;;;;5076900;28;20083;-46
2022/04/27 06:20:11;;;;;;;4.32;2.92;;;9.40;70.90;;;;;;5071890;28;20020;-44
2022/04/27 06:22:37;;;;;;;4.63;2.92;;;9.50;70.80;;;;;;5077091;28;20029;-48
2022/04/27 06:25:05;;;;;;;7.00;3.58;;;9.70;71.10;;;;;;5055699;28;20408;-45
2022/04/27 06:27:32;;;;;;;6.90;4.55;;;9.80;70.50;;;;;;5076758;28;20318;-45
2022/04/27 06:29:59;;;;;;;7.55;3.15;;;9.90;70.50;;;;;;5075471;28;20029;-45
2022/04/27 06:32:25;;;;;;;6.82;3.50;;;10.00;69.40;;;;;;5073493;28;20052;-46
2022/04/27 06:34:52;;;;;;;5.32;3.72;;;10.10;68.80;;;;;;5076634;28;20036;-46
2022/04/27 06:37:19;;;;;;;4.03;2.72;;;10.20;69.00;;;;;;5076618;28;20029;-45
2022/04/27 06:39:46;;;;;;;4.97;2.85;;;10.20;67.90;;;;;;5076616;28;20044;-45
2022/04/27 06:42:12;;;;;;;4.85;2.05;;;10.20;66.70;;;;;;5074991;28;20040;-45
2022/04/27 06:44:39;;;;;;;7.25;2.78;;;10.40;65.20;;;;;;5076387;28;20357;-45
2022/04/27 06:47:06;;;;;;;4.78;2.90;;;10.30;63.80;;;;;;5074907;28;20079;-45
2022/04/27 06:49:31;;;;;;;4.03;2.53;;;10.40;64.60;;;;;;5076025;28;20020;-45
2022/04/27 06:51:59;;;;;;;6.00;3.20;;;10.40;66.10;;;;;;5074767;28;20096;-46
2022/04/27 06:54:26;;;;;;;3.97;2.55;;;10.50;65.10;;;;;;5059120;28;20449;-46
2022/04/27 06:56:52;;;;;;;6.45;2.72;;;10.60;65.80;;;;;;5075109;28;20025;-45
2022/04/27 06:59:19;;;;;;;3.70;2.28;;;10.70;64.60;;;;;;5076146;28;20048;-45
2022/04/27 07:01:45;;;;;;;6.07;2.67;;;10.70;64.10;;;;;;5074429;28;20047;-45
2022/04/27 07:04:13;;;;;;;5.65;2.30;;;10.60;64.50;;;;;;5071626;28;20384;-44
2022/04/27 07:06:40;;;;;;;4.22;2.20;;;10.60;63.30;;;;;;5074540;28;20465;-47
2022/04/27 07:09:13;;;;;;;4.07;2.22;;;10.60;62.90;;;;;;5074125;28;20032;-46
2022/04/27 07:11:40;;;;;;;6.13;2.83;;;10.70;64.80;;;;;;5075527;28;20096;-47
2022/04/27 07:14:07;;;;;;;6.38;2.53;;;10.60;62.30;;;;;;5056669;28;20037;-46
2022/04/27 07:16:33;;;;;;;6.68;2.33;;;10.70;63.60;;;;;;5072822;28;20038;-46
2022/04/27 07:19:00;;;;;;;4.65;1.50;;;10.50;60.40;;;;;;5074174;28;20111;-48
2022/04/27 07:21:27;;;;;;;4.15;1.65;;;10.40;62.50;;;;;;5075857;28;20044;-45
2022/04/27 07:23:53;;;;;;;2.88;1.35;;;10.40;60.70;;;;;;5074156;28;20028;-45
2022/04/27 07:26:20;;;;;;;3.67;1.83;;;10.40;61.50;;;;;;5074519;28;20020;-49
2022/04/27 07:28:47;;;;;;;4.25;1.77;;;10.50;61.10;;;;;;5075920;28;20017;-45
2022/04/27 07:31:14;;;;;;;3.53;1.83;;;10.70;59.60;;;;;;5074140;28;20132;-46
2022/04/27 07:33:41;;;;;;;5.43;1.92;;;10.70;59.90;;;;;;5074734;28;20088;-47
2022/04/27 07:36:08;;;;;;;4.60;1.65;;;10.70;60.50;;;;;;5072457;28;20902;-47
2022/04/27 07:38:38;;;;;;;2.72;1.60;;;10.80;60.10;;;;;;5057466;28;20031;-48
2022/04/27 07:41:05;;;;;;;;;;;10.90;59.70;;;;;;5074482;28;20028;-47
2022/04/27 07:43:31;;;;;;;4.43;1.70;;;11.00;60.70;;;;;;5075126;28;19950;-46
2022/04/27 07:45:58;;;;;;;4.50;1.77;;;11.10;59.90;;;;;;5074262;28;20024;-45
2022/04/27 07:48:25;;;;;;;8.48;2.22;;;11.10;59.40;;;;;;5074586;28;20093;-46
2022/04/27 07:50:52;;;;;;;4.35;1.75;;;11.10;59.40;;;;;;5074862;28;20048;-47
2022/04/27 07:53:21;;;;;;;3.88;1.83;;;11.10;58.90;;;;;;5073668;28;20021;-45
2022/04/27 07:55:48;;;;;;;4.53;1.67;;;11.10;58.70;;;;;;5075583;28;20023;-49
2022/04/27 07:58:15;;;;;;;4.90;2.15;;;11.10;60.00;;;;;;5073263;28;20441;-45
2022/04/27 08:00:44;;;;;;;3.60;1.63;;;11.10;58.60;;;;;;5075065;28;20024;-50
2022/04/27 08:03:11;;;;;;;5.50;2.20;;;10.90;59.70;;;;;;5073447;28;20047;-47
2022/04/27 08:05:41;;;;;;;4.40;2.17;;;10.90;59.20;;;;;;5075044;28;20025;-46
2022/04/27 08:08:10;;;;;;;4.28;2.28;;;10.90;61.70;;;;;;5073380;28;20067;-47
2022/04/27 08:10:38;;;;;;;4.50;2.75;;;11.00;62.00;;;;;;5072060;28;20091;-47
2022/04/27 08:13:06;;;;;;;6.05;2.88;;;11.00;63.10;;;;;;5057497;28;20032;-45
2022/04/27 08:15:33;;;;;;;5.97;2.65;;;11.20;62.30;;;;;;5073176;28;20029;-47
2022/04/27 08:18:19;;;;;;;9.93;3.08;;;11.20;61.10;;;;;;5054298;28;20025;-48
2022/04/27 08:23:34;;;;;;;5.13;2.55;;;11.00;61.50;;;;;;5073820;28;20050;-46
2022/04/27 08:26:05;;;;;;;5.97;2.55;;;11.10;62.50;;;;;;5073307;28;20017;-46
2022/04/27 08:28:32;;;;;;;4.20;2.95;;;11.00;62.30;;;;;;5074379;28;20032;-48
2022/04/27 08:31:00;;;;;;;4.93;2.75;;;11.10;62.10;;;;;;5055506;28;20064;-50
2022/04/27 08:33:30;;;;;;;4.57;1.95;;;11.20;61.80;;;;;;5074343;28;20115;-45
2022/04/27 08:36:00;;;;;;;4.65;1.80;;;11.30;61.50;;;;;;5073029;28;20092;-49
2022/04/27 08:38:33;;;;;;;6.25;2.22;;;11.40;59.70;;;;;;5074498;28;20048;-46
2022/04/27 08:41:01;;;;;;;5.57;1.90;;;11.40;59.60;;;;;;5055444;28;20031;-47
2022/04/27 08:43:31;;;;;;;4.68;2.33;;;11.30;59.30;;;;;;5056561;28;20021;-44
2022/04/27 08:46:02;;;;;;;5.18;2.67;;;11.40;60.50;;;;;;5072493;28;20028;-46
2022/04/27 08:48:31;;;;;;;5.50;2.40;;;11.30;59.40;;;;;;5071244;28;20017;-47
2022/04/27 08:51:00;;;;;;;3.97;1.85;;;11.10;58.10;;;;;;5072443;28;20041;-47
2022/04/27 08:53:29;;;;;;;6.27;2.37;;;11.20;59.90;;;;;;5073879;28;20029;-45
2022/04/27 08:55:56;;;;;;;5.00;1.90;;;11.20;60.10;;;;;;5072888;28;20052;-51
2022/04/27 08:58:25;;;;;;;6.82;2.30;;;11.10;59.10;;;;;;5068501;28;20282;-45
2022/04/27 09:00:52;;;;;;;7.70;2.07;;;11.30;60.30;;;;;;5072778;28;20490;-47
2022/04/27 09:03:38;;;;;;;5.10;2.00;;;11.40;59.90;;;;;;5054325;28;20314;-45
2022/04/27 09:06:13;;;;;;;5.60;1.77;;;11.50;59.60;;;;;;5072049;28;20416;-47
2022/04/27 09:08:58;;;;;;;5.15;2.47;;;11.50;56.90;;;;;;5053439;28;20112;-47
2022/04/27 09:11:26;;;;;;;4.28;1.83;;;11.50;57.40;;;;;;5054808;28;20737;-46
2022/04/27 09:14:10;;;;;;;3.67;1.92;;;11.70;57.30;;;;;;5073443;28;20115;-47
2022/04/27 09:22:11;;;;;;;3.95;1.77;;;11.70;56.50;;;;;;5072162;28;20112;-48
2022/04/27 09:24:58;;;;;;;6.47;2.50;;;11.80;55.70;;;;;;5073446;28;20024;-45
2022/04/27 09:27:25;;;;;;;6.47;2.05;;;11.60;55.70;;;;;;5071958;28;20469;-45
2022/04/27 09:29:59;;;;;;;5.10;2.22;;;11.60;55.70;;;;;;5073211;28;20067;-46
2022/04/27 09:32:26;;;;;;;4.13;1.55;;;11.70;56.10;;;;;;5071751;28;20583;-45
2022/04/27 09:34:54;;;;;;;5.25;2.20;;;11.90;56.50;;;;;;5072963;28;20029;-45
2022/04/27 09:37:25;;;;;;;4.32;1.83;;;11.90;54.00;;;;;;5052886;28;20039;-46
2022/04/27 09:40:11;;;;;;;5.00;1.88;;;12.10;55.80;;;;;;5073118;28;20020;-45
2022/04/27 09:42:43;;;;;;;6.43;1.95;;;12.40;55.50;;;;;;5072369;28;20529;-45
2022/04/27 09:45:19;;;;;;;10.07;2.22;;;12.40;55.20;;;;;;5070128;28;20029;-47
2022/04/27 09:47:53;;;;;;;4.38;1.77;;;12.50;53.60;;;;;;5069628;28;20306;-45
2022/04/27 09:50:20;;;;;;;2.80;1.42;;;12.40;54.80;;;;;;5072699;28;20043;-47
2022/04/27 09:52:47;;;;;;;6.68;2.15;;;12.50;53.80;;;;;;5053541;28;20028;-45
2022/04/27 09:55:13;;;;;;;7.45;2.20;;;12.50;51.90;;;;;;5072975;28;20059;-44
2022/04/27 09:57:44;;;;;;;6.90;2.80;;;12.60;52.30;;;;;;5069101;28;20064;-44
2022/04/27 10:00:12;;;;;;;4.93;2.20;;;13.00;53.40;;;;;;5062351;28;20360;-47
2022/04/27 10:02:43;;;;;;;4.95;2.05;;;13.40;52.60;;;;;;5056510;28;20039;-48
2022/04/27 10:05:10;;;;;;;5.15;2.25;;;13.60;50.80;;;;;;5072760;28;20021;-47
2022/04/27 10:07:37;;;;;;;5.97;1.73;;;13.80;50.80;;;;;;5053463;28;20027;-48
2022/04/27 10:10:04;;;;;;;5.03;2.00;;;14.10;51.10;;;;;;5073244;28;20383;-47
2022/04/27 10:12:36;;;;;;;4.57;1.67;;;14.10;51.90;;;;;;5071207;28;20112;-46
2022/04/27 10:15:03;;;;;;;3.88;1.30;;;13.80;49.20;;;;;;5072670;28;20032;-46
2022/04/27 10:17:29;;;;;;;8.68;2.20;;;13.70;49.10;;;;;;5087295;28;20725;-46
2022/04/27 10:19:56;;;;;;;3.92;2.03;;;13.60;49.50;;;;;;5054870;28;20032;-45
2022/04/27 10:22:31;;;;;;;5.97;2.17;;;13.40;50.20;;;;;;5071428;28;20111;-49
2022/04/27 10:25:05;;;;;;;5.40;1.90;;;13.30;51.90;;;;;;5072458;28;20060;-45
2022/04/27 10:27:49;;;;;;;7.72;2.63;;;13.40;50.90;;;;;;5069925;28;20108;-45
2022/04/27 10:30:17;;;;;;;5.25;2.10;;;13.40;51.10;;;;;;5072508;28;20040;-48
2022/04/27 10:33:01;;;;;;;5.28;1.73;;;13.40;52.10;;;;;;5069183;28;20052;-45
2022/04/27 10:35:36;;;;;;;8.45;2.35;;;13.70;50.60;;;;;;5072390;28;20032;-47
2022/04/27 10:38:05;;;;;;;7.45;2.58;;;14.70;51.50;;;;;;5070215;28;20113;-46
2022/04/27 10:40:35;;;;;;;6.80;2.05;;;15.40;48.70;;;;;;5054920;28;20501;-45
2022/04/27 10:43:14;;;;;;;;;;;15.80;45.90;;;;;;5049266;28;20112;-46
2022/04/27 10:45:45;;;;;;;6.50;2.63;;;15.70;45.90;;;;;;5047880;28;20391;-45
2022/04/27 10:48:48;;;;;;;5.68;2.08;;;15.90;47.20;;;;;;5069160;28;20032;-45
2022/04/27 10:51:17;;;;;;;5.75;2.17;;;14.80;46.20;;;;;;5059584;28;20052;-46
2022/04/27 10:53:49;;;;;;;5.20;1.90;;;14.30;47.90;;;;;;5035815;28;20395;-46
2022/04/27 10:56:25;;;;;;;5.15;2.20;;;14.40;48.30;;;;;;5035988;28;20025;-45
2022/04/27 10:58:54;;;;;;;9.00;2.78;;;13.90;47.30;;;;;;5016092;28;20463;-45
2022/04/27 11:01:51;;;;;;;6.07;1.65;;;13.90;49.30;;;;;;5016140;28;20108;-46
2022/04/27 11:04:18;;;;;;;4.90;1.90;;;14.10;48.00;;;;;;5018637;28;20591;-48
2022/04/27 11:07:23;;;;;;;5.25;1.80;;;14.40;48.50;;;;;;5035820;28;20039;-47
2022/04/27 11:09:58;;;;;;;5.57;2.47;;;13.90;49.60;;;;;;5035241;28;20052;-45
2022/04/27 11:12:25;;;;;;;5.47;2.58;;;13.90;50.20;;;;;;5036072;28;20029;-46
2022/04/27 11:14:58;;;;;;;5.45;2.95;;;13.80;50.50;;;;;;5034803;28;20079;-46
2022/04/27 11:17:29;;;;;;;9.70;3.13;;;13.80;51.70;;;;;;5034906;28;20026;-46
2022/04/27 11:19:56;;;;;;;5.40;1.90;;;13.80;50.70;;;;;;5018163;28;20045;-45
2022/04/27 11:22:23;;;;;;;7.00;2.38;;;13.60;48.50;;;;;;5033666;28;20326;-45
2022/04/27 11:24:50;;;;;;;6.43;1.80;;;13.40;48.50;;;;;;5035572;28;20159;-46
2022/04/27 11:27:27;;;;;;;4.57;1.98;;;13.40;49.40;;;;;;5035557;28;20021;-48
2022/04/27 11:29:55;;;;;;;4.45;2.10;;;13.50;50.50;;;;;;5035572;28;20434;-46
2022/04/27 11:32:21;;;;;;;7.20;2.15;;;13.60;51.10;;;;;;5035333;28;20030;-45
2022/04/27 11:34:49;;;;;;;7.07;1.80;;;13.50;50.70;;;;;;5034398;28;20469;-48
2022/04/27 11:37:37;;;;;;;7.40;1.85;;;13.70;51.10;;;;;;5034963;28;20130;-48
2022/04/27 11:40:27;;;;;;;8.05;2.03;;;13.50;50.80;;;;;;5034833;28;20056;-46
2022/04/27 11:42:59;;;;;;;7.25;2.60;;;13.50;49.50;;;;;;5034577;28;20041;-45
2022/04/27 11:45:27;;;;;;;8.32;1.95;;;13.50;49.30;;;;;;5035296;28;20044;-45
2022/04/27 11:48:05;;;;;;;6.00;2.25;;;13.40;52.10;;;;;;5035022;28;20595;-45
2022/04/27 11:50:33;;;;;;;9.27;2.42;;;13.50;51.30;;;;;;5054401;28;20056;-44
2022/04/27 11:53:02;;;;;;;7.95;3.10;;;13.40;50.50;;;;;;5073520;28;20109;-46
2022/04/27 11:55:29;;;;;;;6.95;2.53;;;13.60;51.10;;;;;;5075337;28;20024;-46
2022/04/27 11:57:56;;;;;;;5.53;2.80;;;13.60;51.40;;;;;;5073329;28;20581;-45
2022/04/27 12:00:26;;;;;;;9.02;2.50;;;13.50;51.10;;;;;;5075031;28;20067;-47
2022/04/27 12:03:05;;;;;;;5.07;2.35;;;13.80;52.70;;;;;;5073291;28;20068;-45
2022/04/27 12:05:50;;;;;;;6.75;2.63;;;13.80;50.40;;;;;;5075057;28;20112;-45
2022/04/27 12:08:22;;;;;;;6.80;1.90;;;13.60;49.80;;;;;;5073238;28;20035;-44
2022/04/27 12:10:49;;;;;;;7.25;2.90;;;13.90;49.10;;;;;;5074929;28;20029;-47
2022/04/27 12:13:18;;;;;;;9.93;2.38;;;14.20;48.60;;;;;;5073507;28;20035;-50
2022/04/27 12:15:50;;;;;;;12.20;2.57;;;14.10;48.20;;;;;;5073149;28;20858;-44
2022/04/27 12:18:25;;;;;;;5.25;2.03;;;13.90;49.20;;;;;;5074399;28;20275;-46
2022/04/27 12:20:55;;;;;;;8.88;3.00;;;13.90;52.40;;;;;;5089109;28;20041;-47
2022/04/27 12:23:36;;;;;;;5.45;2.45;;;13.90;51.20;;;;;;5074585;28;20021;-45
2022/04/27 12:26:03;;;;;;;5.95;2.78;;;14.10;51.20;;;;;;5072538;28;20032;-45
2022/04/27 12:28:49;;;;;;;6.47;1.75;;;14.10;50.50;;;;;;5071291;28;20064;-48
2022/04/27 12:31:16;;;;;;;5.07;1.75;;;13.90;50.30;;;;;;5055552;28;20025;-45
2022/04/27 12:33:48;;;;;;;6.18;2.33;;;13.80;50.70;;;;;;5074467;28;20052;-45
2022/04/27 12:39:21;;;;;;;8.52;2.38;;;13.60;51.10;;;;;;5074399;28;20345;-45
2022/04/27 12:41:50;;;;;;;8.15;2.58;;;13.40;52.30;;;;;;5071472;28;20020;-48
2022/04/27 12:44:42;;;;;;;8.50;3.35;;;13.70;52.30;;;;;;5073099;28;20498;-45
2022/04/27 12:47:26;;;;;;;8.43;2.88;;;13.80;51.80;;;;;;5071459;28;20032;-47
2022/04/27 12:50:00;;;;;;;5.97;2.88;;;13.70;51.40;;;;;;5048721;28;20118;-45
2022/04/27 12:52:30;;;;;;;6.80;2.40;;;13.70;51.70;;;;;;5033626;28;20040;-45
2022/04/27 12:55:12;;;;;;;13.90;3.78;;;13.60;53.10;;;;;;5033519;28;20032;-46
2022/04/27 12:57:55;;;;;;;5.57;2.40;;;13.30;52.50;;;;;;5013366;28;20061;-45
2022/04/27 13:00:23;;;;;;;9.57;2.85;;;12.90;54.00;;;;;;5014283;28;20029;-44
2022/04/27 13:02:49;;;;;;;7.30;2.67;;;12.90;55.00;;;;;;5013527;28;20034;-45
2022/04/27 13:05:16;;;;;;;8.45;2.83;;;12.80;54.70;;;;;;5014176;28;20029;-45
2022/04/27 13:07:43;;;;;;;7.93;2.88;;;12.90;54.60;;;;;;5013606;28;20371;-47
2022/04/27 13:12:58;;;;;;;6.25;2.55;;;13.30;54.20;;;;;;5014106;28;20387;-45
2022/04/27 13:15:25;;;;;;;12.35;2.78;;;13.40;54.10;;;;;;5014034;28;20435;-44
2022/04/27 13:17:52;;;;;;;9.05;2.30;;;13.30;54.60;;;;;;5013369;28;20069;-46
2022/04/27 13:20:19;;;;;;;7.07;3.22;;;13.20;54.50;;;;;;5013938;28;20034;-46
2022/04/27 13:22:44;;;;;;;8.90;3.50;;;12.90;56.50;;;;;;5044094;28;20060;-44
2022/04/27 13:25:16;;;;;;;9.60;3.17;;;13.00;56.00;;;;;;5013673;28;20033;-45
2022/04/27 13:27:43;;;;;;;11.27;3.00;;;13.10;57.10;;;;;;5012729;28;20104;-46